createdAt,value
2018-08-04T00:00:40.072Z,76.04
2018-08-04T00:01:40.056Z,76.91
2018-08-04T00:02:40.062Z,77.01
2018-08-04T00:03:40.069Z,76.43
2018-08-04T00:04:40.070Z,77.20
2018-08-04T00:05:40.077Z,76.91
2018-08-04T00:06:40.078Z,76.82
2018-08-04T00:07:40.088Z,77.40
2018-08-04T00:08:40.090Z,77.50
2018-08-04T00:09:40.095Z,77.50
2018-08-04T00:10:40.096Z,77.30
2018-08-04T00:11:40.106Z,77.20
2018-08-04T00:12:40.107Z,77.01
2018-08-04T00:13:40.112Z,77.40
2018-08-04T00:14:40.114Z,77.50
2018-08-04T00:15:40.121Z,77.50
2018-08-04T00:16:40.125Z,77.01
2018-08-04T00:17:40.129Z,76.82
2018-08-04T00:18:40.134Z,77.01
2018-08-04T00:19:40.148Z,77.20
2018-08-04T00:20:40.143Z,77.01
2018-08-04T00:21:40.151Z,77.50
2018-08-04T00:22:40.150Z,77.45
2018-08-04T00:23:40.154Z,77.69
2018-08-04T00:24:40.160Z,77.55
2018-08-04T00:25:40.167Z,77.55
2018-08-04T00:26:40.168Z,78.03
2018-08-04T00:27:40.171Z,77.75
2018-08-04T00:28:40.179Z,78.42
2018-08-04T00:29:40.180Z,78.13
2018-08-04T00:30:40.184Z,78.42
2018-08-04T00:31:40.191Z,78.33
2018-08-04T00:32:40.208Z,78.52
2018-08-04T00:33:40.202Z,78.52
2018-08-04T00:34:40.203Z,78.33
2018-08-04T00:35:40.208Z,78.13
2018-08-04T00:36:40.212Z,78.33
2018-08-04T00:37:40.215Z,78.52
2018-08-04T00:38:40.272Z,78.81
2018-08-04T00:39:40.224Z,78.33
2018-08-04T00:40:40.229Z,78.13
2018-08-04T00:41:40.236Z,78.61
2018-08-04T00:42:40.238Z,78.71
2018-08-04T00:43:40.248Z,78.71
2018-08-04T00:44:40.246Z,78.61
2018-08-04T00:45:40.255Z,78.81
2018-08-04T00:46:40.259Z,78.81
2018-08-04T00:47:40.260Z,79.10
2018-08-04T00:48:40.264Z,79.29
2018-08-04T00:49:40.268Z,78.81
2018-08-04T00:50:40.274Z,78.81
2018-08-04T00:51:40.292Z,79.20
2018-08-04T00:52:40.294Z,79.49
2018-08-04T00:53:40.286Z,79.87
2018-08-04T00:54:40.290Z,79.29
2018-08-04T00:55:40.296Z,79.29
2018-08-04T00:56:40.303Z,79.49
2018-08-04T00:57:40.305Z,79.58
2018-08-04T00:58:40.309Z,79.45
2018-08-04T00:59:40.318Z,79.16
2018-08-04T01:00:40.316Z,79.16
2018-08-04T01:01:40.321Z,79.45
2018-08-04T01:02:40.325Z,79.83
2018-08-04T01:03:40.328Z,79.06
2018-08-04T01:04:40.334Z,79.06
2018-08-04T01:05:40.338Z,79.35
2018-08-04T01:06:40.342Z,79.64
2018-08-04T01:07:40.352Z,79.35
2018-08-04T01:08:40.352Z,79.93
2018-08-04T01:09:40.356Z,80.03
2018-08-04T01:10:40.357Z,79.74
2018-08-04T01:11:40.363Z,79.83
2018-08-04T01:12:40.367Z,80.22
2018-08-04T01:13:40.370Z,80.03
2018-08-04T01:14:40.375Z,79.74
2018-08-04T01:15:40.382Z,79.64
2018-08-04T01:16:40.388Z,79.83
2018-08-04T01:17:40.390Z,79.64
2018-08-04T01:18:40.393Z,79.64
2018-08-04T01:19:40.397Z,80.03
2018-08-04T01:20:40.404Z,79.35
2018-08-04T01:21:40.404Z,79.64
2018-08-04T01:22:40.409Z,79.83
2018-08-04T01:23:40.414Z,79.74
2018-08-04T01:24:40.422Z,79.83
2018-08-04T01:25:40.421Z,79.74
2018-08-04T01:26:40.427Z,80.28
2018-08-04T01:27:40.430Z,79.99
2018-08-04T01:28:40.455Z,80.38
2018-08-04T01:29:40.445Z,80.08
2018-08-04T01:30:40.444Z,80.08
2018-08-04T01:31:40.447Z,80.38
2018-08-04T01:32:40.454Z,80.18
2018-08-04T01:33:40.463Z,80.18
2018-08-04T01:34:40.459Z,80.76
2018-08-04T01:35:40.468Z,80.18
2018-08-04T01:36:40.468Z,80.66
2018-08-04T01:37:40.474Z,80.66
2018-08-04T01:38:40.477Z,80.38
2018-08-04T01:39:40.482Z,80.66
2018-08-04T01:40:40.486Z,80.76
2018-08-04T01:41:40.488Z,80.66
2018-08-04T01:42:40.494Z,80.76
2018-08-04T01:43:40.499Z,80.57
2018-08-04T01:44:40.502Z,80.66
2018-08-04T01:45:40.504Z,80.76
2018-08-04T01:46:40.509Z,80.57
2018-08-04T01:47:40.513Z,80.57
2018-08-04T01:48:40.520Z,80.66
2018-08-04T01:49:40.520Z,80.95
2018-08-04T01:50:40.526Z,80.47
2018-08-04T01:51:40.530Z,80.57
2018-08-04T01:52:40.536Z,80.86
2018-08-04T01:53:40.556Z,80.66
2018-08-04T01:54:40.544Z,80.57
2018-08-04T01:55:40.547Z,80.57
2018-08-04T01:56:40.550Z,80.62
2018-08-04T01:57:40.556Z,80.53
2018-08-04T01:58:40.561Z,80.53
2018-08-04T01:59:40.563Z,80.66
2018-08-04T02:00:40.567Z,80.66
2018-08-04T02:01:40.570Z,80.53
2018-08-04T02:02:40.585Z,80.53
2018-08-04T02:03:40.578Z,80.47
2018-08-04T02:04:40.587Z,80.43
2018-08-04T02:05:40.588Z,80.43
2018-08-04T02:06:40.593Z,81.30
2018-08-04T02:07:40.594Z,81.11
2018-08-04T02:08:40.604Z,81.20
2018-08-04T02:09:40.606Z,81.20
2018-08-04T02:10:40.605Z,80.91
2018-08-04T02:11:40.610Z,81.20
2018-08-04T02:12:40.614Z,81.24
2018-08-04T02:13:40.624Z,81.40
2018-08-04T02:14:40.624Z,81.20
2018-08-04T02:15:40.629Z,81.30
2018-08-04T02:16:40.631Z,81.15
2018-08-04T02:17:40.635Z,81.30
2018-08-04T02:18:40.639Z,81.44
2018-08-04T02:19:40.642Z,81.40
2018-08-04T02:20:40.651Z,81.01
2018-08-04T02:21:40.649Z,81.11
2018-08-04T02:22:40.653Z,81.44
2018-08-04T02:23:40.661Z,81.15
2018-08-04T02:24:40.663Z,81.11
2018-08-04T02:25:40.666Z,81.11
2018-08-04T02:26:40.670Z,80.91
2018-08-04T02:27:40.674Z,81.68
2018-08-04T02:28:40.680Z,81.59
2018-08-04T02:29:40.687Z,81.40
2018-08-04T02:30:40.688Z,81.30
2018-08-04T02:31:40.694Z,81.78
2018-08-04T02:32:40.697Z,81.40
2018-08-04T02:33:40.698Z,81.40
2018-08-04T02:34:40.701Z,82.36
2018-08-04T02:35:40.705Z,81.78
2018-08-04T02:36:40.710Z,81.88
2018-08-04T02:37:40.712Z,82.26
2018-08-04T02:38:40.719Z,81.68
2018-08-04T02:39:40.725Z,82.17
2018-08-04T02:40:40.725Z,82.26
2018-08-04T02:41:40.728Z,81.98
2018-08-04T02:42:40.733Z,82.07
2018-08-04T02:43:40.737Z,81.88
2018-08-04T02:44:40.741Z,81.88
2018-08-04T02:45:40.746Z,81.88
2018-08-04T02:46:40.755Z,81.59
2018-08-04T02:47:40.755Z,81.84
2018-08-04T02:48:40.755Z,82.36
2018-08-04T02:49:40.763Z,82.42
2018-08-04T02:50:40.763Z,82.65
2018-08-04T02:51:40.768Z,82.17
2018-08-04T02:52:40.771Z,82.46
2018-08-04T02:53:40.774Z,83.14
2018-08-04T02:54:40.780Z,83.33
2018-08-04T02:55:40.790Z,82.71
2018-08-04T02:56:40.790Z,82.51
2018-08-04T02:57:40.790Z,82.81
2018-08-04T02:58:40.798Z,82.75
2018-08-04T02:59:40.804Z,82.56
2018-08-04T03:00:40.801Z,82.71
2018-08-04T03:01:40.810Z,82.61
2018-08-04T03:02:40.809Z,82.84
2018-08-04T03:03:40.813Z,82.71
2018-08-04T03:04:40.860Z,82.71
2018-08-04T03:05:40.821Z,82.71
2018-08-04T03:06:40.830Z,83.29
2018-08-04T03:07:40.827Z,83.39
2018-08-04T03:08:40.916Z,83.58
2018-08-04T03:09:40.839Z,83.19
2018-08-04T03:10:40.840Z,83.19
2018-08-04T03:11:40.846Z,83.48
2018-08-04T03:12:40.853Z,84.16
2018-08-04T03:13:40.852Z,83.19
2018-08-04T03:14:40.926Z,83.39
2018-08-04T03:15:40.859Z,82.71
2018-08-04T03:16:40.863Z,83.19
2018-08-04T03:17:40.865Z,83.48
2018-08-04T03:18:40.870Z,83.48
2018-08-04T03:19:40.874Z,83.39
2018-08-04T03:20:40.883Z,83.48
2018-08-04T03:21:40.882Z,83.39
2018-08-04T03:22:40.885Z,83.19
2018-08-04T03:23:40.892Z,84.06
2018-08-04T03:24:40.893Z,83.96
2018-08-04T03:25:40.898Z,83.29
2018-08-04T03:26:40.900Z,83.29
2018-08-04T03:27:40.904Z,83.00
2018-08-04T03:28:40.907Z,83.39
2018-08-04T03:29:40.911Z,83.58
2018-08-04T03:30:40.917Z,83.67
2018-08-04T03:31:40.920Z,83.48
2018-08-04T03:32:40.924Z,83.67
2018-08-04T03:33:40.926Z,83.58
2018-08-04T03:34:40.931Z,83.58
2018-08-04T03:35:40.936Z,83.96
2018-08-04T03:36:40.937Z,84.64
2018-08-04T03:37:40.941Z,83.67
2018-08-04T03:38:40.946Z,83.67
2018-08-04T03:39:40.949Z,84.44
2018-08-04T03:40:40.955Z,83.58
2018-08-04T03:41:40.955Z,84.25
2018-08-04T03:42:40.960Z,83.96
2018-08-04T03:43:40.963Z,84.06
2018-08-04T03:44:40.974Z,83.96
2018-08-04T03:45:40.971Z,84.16
2018-08-04T03:46:40.974Z,84.06
2018-08-04T03:47:40.978Z,83.87
2018-08-04T03:48:40.995Z,84.44
2018-08-04T03:49:40.987Z,84.74
2018-08-04T03:50:40.989Z,84.25
2018-08-04T03:51:40.993Z,84.16
2018-08-04T03:52:41.001Z,84.44
2018-08-04T03:53:41.001Z,84.21
2018-08-04T03:54:41.004Z,84.54
2018-08-04T03:55:41.009Z,84.41
2018-08-04T03:56:41.012Z,84.44
2018-08-04T03:57:41.017Z,84.69
2018-08-04T03:58:41.018Z,84.79
2018-08-04T03:59:41.089Z,84.69
2018-08-04T04:00:41.027Z,84.50
2018-08-04T04:01:41.031Z,84.54
2018-08-04T04:02:41.035Z,84.59
2018-08-04T04:03:41.039Z,84.98
2018-08-04T04:04:41.042Z,84.54
2018-08-04T04:05:41.045Z,85.31
2018-08-04T04:06:41.094Z,85.31
2018-08-04T04:07:41.052Z,84.74
2018-08-04T04:08:41.056Z,85.37
2018-08-04T04:09:41.059Z,84.98
2018-08-04T04:10:41.064Z,85.17
2018-08-04T04:11:41.071Z,85.41
2018-08-04T04:12:41.073Z,85.60
2018-08-04T04:13:41.078Z,85.41
2018-08-04T04:14:41.077Z,85.22
2018-08-04T04:15:41.082Z,85.22
2018-08-04T04:16:41.087Z,85.22
2018-08-04T04:17:41.088Z,84.93
2018-08-04T04:18:41.096Z,85.22
2018-08-04T04:19:41.098Z,84.74
2018-08-04T04:20:41.105Z,84.54
2018-08-04T04:21:41.105Z,84.44
2018-08-04T04:22:41.107Z,84.54
2018-08-04T04:23:41.126Z,84.64
2018-08-04T04:24:41.139Z,83.96
2018-08-04T04:25:41.117Z,84.06
2018-08-04T04:26:41.124Z,84.64
2018-08-04T04:27:41.126Z,84.74
2018-08-04T04:28:41.129Z,84.64
2018-08-04T04:29:41.133Z,84.54
2018-08-04T04:30:41.143Z,84.64
2018-08-04T04:31:41.145Z,84.54
2018-08-04T04:32:41.146Z,84.64
2018-08-04T04:33:41.148Z,84.68
2018-08-04T04:34:41.153Z,84.64
2018-08-04T04:35:41.157Z,84.68
2018-08-04T04:36:41.173Z,84.48
2018-08-04T04:37:41.163Z,84.48
2018-08-04T04:38:41.169Z,84.68
2018-08-04T04:39:41.172Z,85.06
2018-08-04T04:40:41.175Z,84.58
2018-08-04T04:41:41.179Z,84.58
2018-08-04T04:42:41.183Z,83.72
2018-08-04T04:43:41.186Z,84.00
2018-08-04T04:44:41.190Z,83.33
2018-08-04T04:45:41.196Z,83.04
2018-08-04T04:46:41.196Z,83.52
2018-08-04T04:47:41.205Z,82.75
2018-08-04T04:48:41.207Z,82.75
2018-08-04T04:49:41.217Z,82.46
2018-08-04T04:50:41.213Z,83.04
2018-08-04T04:51:41.217Z,82.65
2018-08-04T04:52:41.221Z,83.62
2018-08-04T04:53:41.225Z,82.84
2018-08-04T04:54:41.228Z,82.75
2018-08-04T04:55:41.235Z,82.79
2018-08-04T04:56:41.236Z,82.75
2018-08-04T04:57:41.239Z,83.42
2018-08-04T04:58:41.245Z,83.08
2018-08-04T04:59:41.248Z,82.98
2018-08-04T05:00:41.254Z,82.98
2018-08-04T05:01:41.256Z,82.79
2018-08-04T05:02:41.260Z,82.11
2018-08-04T05:03:41.266Z,81.96
2018-08-04T05:04:41.267Z,81.19
2018-08-04T05:05:41.272Z,80.51
2018-08-04T05:06:41.276Z,80.71
2018-08-04T05:07:41.281Z,80.74
2018-08-04T05:08:41.331Z,80.36
2018-08-04T05:09:41.289Z,80.46
2018-08-04T05:10:41.292Z,79.78
2018-08-04T05:11:41.300Z,79.10
2018-08-04T05:12:41.303Z,79.29
2018-08-04T05:13:41.310Z,79.68
2018-08-04T05:14:41.311Z,79.29
2018-08-04T05:15:41.315Z,79.20
2018-08-04T05:16:41.318Z,79.20
2018-08-04T05:17:41.320Z,79.29
2018-08-04T05:18:41.325Z,79.49
2018-08-04T05:19:41.328Z,78.71
2018-08-04T05:20:41.333Z,79.00
2018-08-04T05:21:41.663Z,79.00
2018-08-04T05:22:41.345Z,78.52
2018-08-04T05:23:41.349Z,78.52
2018-08-04T05:24:41.352Z,78.71
2018-08-04T05:25:41.356Z,78.61
2018-08-04T05:26:41.361Z,78.56
2018-08-04T05:27:41.362Z,78.71
2018-08-04T05:28:41.373Z,79.00
2018-08-04T05:29:41.371Z,79.00
2018-08-04T05:30:41.384Z,79.10
2018-08-04T05:31:41.381Z,78.61
2018-08-04T05:32:41.388Z,78.94
2018-08-04T05:33:41.389Z,79.78
2018-08-04T05:34:41.397Z,79.78
2018-08-04T05:35:41.399Z,79.68
2018-08-04T05:36:41.402Z,79.10
2018-08-04T05:37:41.406Z,79.10
2018-08-04T05:38:41.412Z,79.29
2018-08-04T05:39:41.457Z,79.14
2018-08-04T05:40:41.428Z,79.20
2018-08-04T05:41:41.425Z,79.10
2018-08-04T05:42:41.427Z,79.39
2018-08-04T05:43:41.465Z,78.94
2018-08-04T05:44:41.438Z,77.92
2018-08-04T05:45:41.443Z,76.41
2018-08-04T05:46:41.445Z,75.67
2018-08-04T05:47:41.450Z,74.99
2018-08-04T05:48:41.457Z,75.15
2018-08-04T05:49:41.461Z,75.54
2018-08-04T05:50:41.464Z,76.02
2018-08-04T05:51:41.467Z,75.83
2018-08-04T05:52:41.472Z,75.83
2018-08-04T05:53:41.476Z,75.73
2018-08-04T05:54:41.481Z,75.73
2018-08-04T05:55:41.487Z,75.83
2018-08-04T05:56:41.493Z,75.73
2018-08-04T05:57:41.496Z,75.73
2018-08-04T05:58:41.499Z,76.12
2018-08-04T05:59:41.505Z,75.67
2018-08-04T06:00:41.539Z,74.99
2018-08-04T06:01:41.513Z,74.80
2018-08-04T06:02:41.520Z,74.80
2018-08-04T06:03:41.523Z,73.67
2018-08-04T06:04:41.528Z,73.09
2018-08-04T06:05:41.532Z,73.58
2018-08-04T06:06:41.537Z,73.58
2018-08-04T06:07:41.545Z,73.38
2018-08-04T06:08:41.563Z,73.19
2018-08-04T06:09:41.551Z,73.19
2018-08-04T06:10:41.557Z,73.58
2018-08-04T06:11:41.560Z,73.67
2018-08-04T06:12:41.567Z,73.77
2018-08-04T06:13:41.571Z,73.77
2018-08-04T06:14:41.584Z,74.35
2018-08-04T06:15:41.582Z,74.74
2018-08-04T06:16:41.586Z,74.06
2018-08-04T06:17:41.592Z,74.64
2018-08-04T06:18:41.596Z,74.26
2018-08-04T06:19:41.602Z,74.74
2018-08-04T06:20:41.608Z,74.74
2018-08-04T06:21:41.611Z,74.54
2018-08-04T06:22:41.615Z,74.74
2018-08-04T06:23:41.620Z,74.54
2018-08-04T06:24:41.625Z,74.64
2018-08-04T06:25:41.628Z,74.77
2018-08-04T06:26:41.635Z,74.77
2018-08-04T06:27:41.640Z,74.29
2018-08-04T06:28:41.669Z,74.58
2018-08-04T06:29:41.650Z,74.39
2018-08-04T06:30:41.720Z,74.93
2018-08-04T06:31:41.663Z,74.68
2018-08-04T06:32:41.667Z,74.84
2018-08-04T06:33:41.668Z,75.26
2018-08-04T06:34:41.674Z,75.07
2018-08-04T06:35:41.680Z,75.16
2018-08-04T06:36:41.687Z,75.71
2018-08-04T06:37:41.688Z,75.42
2018-08-04T06:38:41.704Z,75.81
2018-08-04T06:39:41.705Z,75.51
2018-08-04T06:40:41.703Z,75.71
2018-08-04T06:41:41.762Z,75.90
2018-08-04T06:42:41.714Z,75.61
2018-08-04T06:43:41.719Z,76.39
2018-08-04T06:44:41.727Z,75.90
2018-08-04T06:45:41.729Z,75.42
2018-08-04T06:46:41.736Z,75.42
2018-08-04T06:47:41.764Z,75.61
2018-08-04T06:48:41.746Z,75.61
2018-08-04T06:49:41.760Z,75.13
2018-08-04T06:50:41.753Z,75.13
2018-08-04T06:51:41.760Z,74.64
2018-08-04T06:52:41.770Z,74.26
2018-08-04T06:53:41.769Z,74.16
2018-08-04T06:54:41.772Z,74.45
2018-08-04T06:55:41.778Z,73.86
2018-08-04T06:56:41.784Z,73.86
2018-08-04T06:57:41.792Z,73.58
2018-08-04T06:58:41.793Z,73.67
2018-08-04T06:59:41.800Z,73.38
2018-08-04T07:00:41.816Z,73.38
2018-08-04T07:01:41.809Z,73.77
2018-08-04T07:02:41.814Z,73.77
2018-08-04T07:03:41.819Z,73.19
2018-08-04T07:04:41.824Z,73.19
2018-08-04T07:05:41.826Z,72.80
2018-08-04T07:06:41.832Z,72.89
2018-08-04T07:07:41.837Z,73.03
2018-08-04T07:08:41.843Z,72.89
2018-08-04T07:09:41.900Z,72.35
2018-08-04T07:10:41.868Z,73.71
2018-08-04T07:11:41.860Z,73.71
2018-08-04T07:12:41.863Z,73.03
2018-08-04T07:13:41.933Z,73.42
2018-08-04T07:14:41.872Z,73.22
2018-08-04T07:15:41.877Z,73.32
2018-08-04T07:16:41.882Z,73.32
2018-08-04T07:17:41.887Z,73.22
2018-08-04T07:18:41.891Z,73.80
2018-08-04T07:19:41.899Z,73.71
2018-08-04T07:20:41.901Z,74.10
2018-08-04T07:21:41.907Z,73.80
2018-08-04T07:22:41.915Z,73.61
2018-08-04T07:23:41.916Z,73.22
2018-08-04T07:24:41.922Z,73.42
2018-08-04T07:25:41.925Z,73.80
2018-08-04T07:26:41.931Z,73.71
2018-08-04T07:27:41.936Z,73.90
2018-08-04T07:28:41.942Z,74.39
2018-08-04T07:29:41.946Z,74.10
2018-08-04T07:30:41.956Z,73.80
2018-08-04T07:31:41.957Z,73.80
2018-08-04T07:32:41.961Z,73.80
2018-08-04T07:33:41.979Z,73.61
2018-08-04T07:34:41.972Z,73.80
2018-08-04T07:35:41.975Z,73.80
2018-08-04T07:36:41.982Z,73.55
2018-08-04T07:37:41.993Z,73.55
2018-08-04T07:38:41.994Z,73.16
2018-08-04T07:39:41.997Z,73.46
2018-08-04T07:40:42.001Z,73.46
2018-08-04T07:41:42.005Z,73.46
2018-08-04T07:42:42.011Z,73.07
2018-08-04T07:43:42.017Z,72.97
2018-08-04T07:44:42.024Z,72.77
2018-08-04T07:45:42.026Z,72.49
2018-08-04T07:46:42.032Z,72.67
2018-08-04T07:47:42.048Z,72.13
2018-08-04T07:48:42.045Z,72.23
2018-08-04T07:49:42.045Z,71.84
2018-08-04T07:50:42.049Z,71.26
2018-08-04T07:51:42.058Z,71.74
2018-08-04T07:52:42.062Z,71.16
2018-08-04T07:53:42.079Z,71.00
2018-08-04T07:54:42.074Z,70.51
2018-08-04T07:55:42.079Z,69.93
2018-08-04T07:56:42.083Z,70.03
2018-08-04T07:57:42.086Z,68.90
2018-08-04T07:58:42.105Z,68.99
2018-08-04T07:59:42.097Z,68.80
2018-08-04T08:00:42.103Z,68.80
2018-08-04T08:01:42.106Z,69.19
2018-08-04T08:02:42.112Z,68.32
2018-08-04T08:03:42.118Z,67.93
2018-08-04T08:04:42.144Z,68.15
2018-08-04T08:05:42.132Z,68.54
2018-08-04T08:06:42.145Z,68.44
2018-08-04T08:07:42.145Z,67.76
2018-08-04T08:08:42.148Z,67.76
2018-08-04T08:09:42.167Z,67.57
2018-08-04T08:10:42.239Z,67.57
2018-08-04T08:11:42.166Z,67.11
2018-08-04T08:12:42.170Z,67.11
2018-08-04T08:13:42.184Z,67.21
2018-08-04T08:14:42.188Z,67.21
2018-08-04T08:15:42.188Z,66.83
2018-08-04T08:16:42.192Z,66.34
2018-08-04T08:17:42.194Z,66.73
2018-08-04T08:18:42.199Z,66.05
2018-08-04T08:19:42.206Z,66.27
2018-08-04T08:20:42.212Z,66.17
2018-08-04T08:21:42.216Z,66.37
2018-08-04T08:22:42.226Z,65.88
2018-08-04T08:23:42.228Z,65.59
2018-08-04T08:24:42.239Z,65.79
2018-08-04T08:25:42.247Z,65.88
2018-08-04T08:26:42.246Z,65.69
2018-08-04T08:27:42.252Z,65.79
2018-08-04T08:28:42.261Z,65.82
2018-08-04T08:29:42.278Z,65.63
2018-08-04T08:30:42.270Z,65.63
2018-08-04T08:31:42.323Z,65.72
2018-08-04T08:32:42.331Z,65.72
2018-08-04T08:33:42.288Z,65.43
2018-08-04T08:34:42.294Z,65.04
2018-08-04T08:35:42.310Z,64.55
2018-08-04T08:36:42.303Z,64.45
2018-08-04T08:37:42.310Z,64.45
2018-08-04T08:38:42.315Z,64.55
2018-08-04T08:39:42.322Z,65.14
2018-08-04T08:40:42.327Z,65.04
2018-08-04T08:41:42.332Z,65.33
2018-08-04T08:42:42.363Z,64.94
2018-08-04T08:43:42.345Z,65.63
2018-08-04T08:44:42.356Z,64.94
2018-08-04T08:45:42.357Z,65.53
2018-08-04T08:46:42.367Z,65.14
2018-08-04T08:47:42.437Z,65.23
2018-08-04T08:48:42.373Z,65.14
2018-08-04T08:49:42.379Z,65.04
2018-08-04T08:50:42.385Z,64.55
2018-08-04T08:51:42.392Z,64.55
2018-08-04T08:52:42.399Z,64.59
2018-08-04T08:53:42.465Z,64.78
2018-08-04T08:54:42.411Z,64.10
2018-08-04T08:55:42.414Z,63.74
2018-08-04T08:56:42.421Z,62.82
2018-08-04T08:57:42.426Z,60.94
2018-08-04T08:58:42.433Z,56.75
2018-08-04T08:59:42.442Z,55.16
2018-08-04T09:00:42.447Z,52.69
2018-08-04T09:01:42.455Z,49.99
2018-08-04T09:02:42.459Z,48.65
2018-08-04T09:03:42.471Z,47.31
2018-08-04T09:04:42.473Z,46.75
2018-08-04T09:05:42.481Z,45.98
2018-08-04T09:06:42.489Z,46.37
2018-08-04T09:07:42.499Z,45.39
2018-08-04T09:08:42.523Z,45.39
2018-08-04T09:09:42.513Z,44.74
2018-08-04T09:10:42.530Z,42.99
2018-08-04T09:11:42.530Z,42.24
2018-08-04T09:12:42.540Z,41.17
2018-08-04T09:13:42.547Z,40.13
2018-08-04T09:14:42.558Z,39.08
2018-08-04T09:15:42.601Z,38.13
2018-08-04T09:16:42.611Z,37.27
2018-08-04T09:17:42.583Z,35.71
2018-08-04T09:18:42.593Z,35.34
2018-08-04T09:19:42.609Z,34.36
2018-08-04T09:20:42.628Z,33.48
2018-08-04T09:21:42.624Z,33.00
2018-08-04T09:22:42.633Z,32.23
2018-08-04T09:23:42.646Z,32.23
2018-08-04T09:24:42.661Z,31.64
2018-08-04T09:25:42.667Z,31.46
2018-08-04T09:26:42.681Z,30.56
2018-08-04T09:27:42.689Z,30.68
2018-08-04T09:28:42.703Z,30.28
2018-08-04T09:29:42.714Z,29.88
2018-08-04T09:30:42.768Z,30.18
2018-08-04T09:31:42.743Z,29.98
2018-08-04T09:32:42.752Z,30.10
2018-08-04T09:33:42.765Z,29.41
2018-08-04T09:34:42.778Z,28.92
2018-08-04T09:35:42.791Z,28.63
2018-08-04T09:36:42.808Z,28.04
2018-08-04T09:37:42.816Z,27.94
2018-08-04T09:38:42.834Z,28.33
2018-08-04T09:39:43.016Z,28.53
2018-08-04T09:40:42.861Z,28.44
2018-08-04T09:41:42.872Z,27.86
2018-08-04T09:42:42.886Z,27.75
2018-08-04T09:43:42.899Z,27.84
2018-08-04T09:44:42.953Z,27.84
2018-08-04T09:45:42.927Z,27.84
2018-08-04T09:46:42.942Z,28.11
2018-08-04T09:47:42.958Z,28.88
2018-08-04T09:48:42.973Z,29.27
2018-08-04T09:49:42.984Z,29.65
2018-08-04T09:50:43.010Z,30.42
2018-08-04T09:51:43.013Z,30.79
2018-08-04T09:52:43.027Z,31.07
2018-08-04T09:53:43.038Z,32.73
2018-08-04T09:54:43.053Z,32.88
2018-08-04T09:55:43.076Z,34.15
2018-08-04T09:56:43.081Z,34.81
2018-08-04T09:57:43.091Z,35.68
2018-08-04T09:58:43.105Z,36.25
2018-08-04T09:59:43.216Z,36.91
2018-08-04T10:00:43.149Z,37.41
2018-08-04T10:01:43.267Z,37.51
2018-08-04T10:02:43.158Z,38.28
2018-08-04T10:03:43.161Z,38.45
2018-08-04T10:04:43.173Z,39.31
2018-08-04T10:05:43.184Z,39.97
2018-08-04T10:06:43.194Z,40.25
2018-08-04T10:07:43.204Z,41.04
2018-08-04T10:08:43.219Z,40.72
2018-08-04T10:09:44.856Z,41.31
2018-08-04T10:10:44.268Z,41.09
2018-08-04T10:11:43.249Z,41.78
2018-08-04T10:12:43.435Z,41.47
2018-08-04T10:13:43.267Z,41.27
2018-08-04T10:14:43.281Z,41.96
2018-08-04T10:15:43.280Z,41.55
2018-08-04T10:16:43.296Z,41.74
2018-08-04T10:17:43.298Z,41.94
2018-08-04T10:18:43.308Z,41.94
2018-08-04T10:19:43.317Z,42.21
2018-08-04T10:20:43.330Z,42.51
2018-08-04T10:21:43.336Z,43.00
2018-08-04T10:22:43.344Z,43.29
2018-08-04T10:23:43.351Z,43.39
2018-08-04T10:24:43.362Z,43.39
2018-08-04T10:25:43.369Z,43.57
2018-08-04T10:26:43.377Z,43.47
2018-08-04T10:27:43.389Z,43.19
2018-08-04T10:28:43.394Z,43.98
2018-08-04T10:29:43.402Z,44.37
2018-08-04T10:30:43.412Z,44.45
2018-08-04T10:31:43.419Z,43.98
2018-08-04T10:32:43.521Z,43.10
2018-08-04T10:33:43.436Z,42.16
2018-08-04T10:34:43.445Z,40.94
2018-08-04T10:35:43.464Z,39.12
2018-08-04T10:36:43.463Z,37.21
2018-08-04T10:37:43.470Z,35.57
2018-08-04T10:38:43.493Z,34.31
2018-08-04T10:39:43.496Z,32.86
2018-08-04T10:40:43.502Z,32.00
2018-08-04T10:41:43.511Z,30.84
2018-08-04T10:42:43.521Z,30.44
2018-08-04T10:43:43.531Z,30.74
2018-08-04T10:44:43.543Z,29.85
2018-08-04T10:45:43.554Z,30.63
2018-08-04T10:46:43.565Z,31.29
2018-08-04T10:47:43.577Z,32.07
2018-08-04T10:48:43.590Z,32.34
2018-08-04T10:49:43.604Z,33.51
2018-08-04T10:50:43.657Z,33.54
2018-08-04T10:51:43.624Z,32.10
2018-08-04T10:52:43.640Z,30.94
2018-08-04T10:53:43.646Z,29.99
2018-08-04T10:54:43.659Z,28.34
2018-08-04T10:55:43.671Z,27.37
2018-08-04T10:56:43.689Z,26.82
2018-08-04T10:57:43.698Z,25.55
2018-08-04T10:58:43.713Z,24.47
2018-08-04T10:59:43.729Z,25.15
2018-08-04T11:00:43.740Z,25.43
2018-08-04T11:01:43.753Z,26.10
2018-08-04T11:02:43.767Z,27.18
2018-08-04T11:03:43.789Z,27.56
2018-08-04T11:04:43.795Z,26.99
2018-08-04T11:05:43.809Z,26.12
2018-08-04T11:06:43.825Z,25.54
2018-08-04T11:07:43.837Z,24.55
2018-08-04T11:08:43.854Z,24.66
2018-08-04T11:09:43.874Z,23.57
2018-08-04T11:10:43.882Z,23.19
2018-08-04T11:11:43.897Z,23.19
2018-08-04T11:12:43.916Z,23.19
2018-08-04T11:13:43.928Z,22.89
2018-08-04T11:14:43.944Z,22.20
2018-08-04T11:15:43.967Z,21.33
2018-08-04T11:16:43.977Z,21.31
2018-08-04T11:17:43.992Z,23.07
2018-08-04T11:18:44.008Z,22.77
2018-08-04T11:19:44.030Z,22.96
2018-08-04T11:20:44.051Z,23.05
2018-08-04T11:21:44.067Z,23.45
2018-08-04T11:22:44.073Z,23.15
2018-08-04T11:23:44.089Z,22.76
2018-08-04T11:24:44.105Z,22.39
2018-08-04T11:25:44.120Z,21.20
2018-08-04T11:26:44.137Z,21.62
2018-08-04T11:27:44.152Z,20.84
2018-08-04T11:28:44.173Z,20.36
2018-08-04T11:29:44.185Z,20.07
2018-08-04T11:30:44.256Z,19.68
2018-08-04T11:31:44.222Z,19.68
2018-08-04T11:32:44.252Z,19.58
2018-08-04T11:33:44.256Z,19.19
2018-08-04T11:34:44.273Z,18.48
2018-08-04T11:35:44.292Z,17.89
2018-08-04T11:36:44.310Z,17.71
2018-08-04T11:37:44.341Z,17.21
2018-08-04T11:38:44.348Z,17.51
2018-08-04T11:39:44.366Z,17.12
2018-08-04T11:40:44.385Z,16.72
2018-08-04T11:41:44.408Z,16.42
2018-08-04T11:42:44.435Z,16.23
2018-08-04T11:43:44.446Z,16.02
2018-08-04T11:44:44.464Z,16.33
2018-08-04T11:45:44.480Z,15.92
2018-08-04T11:46:44.502Z,16.71
2018-08-04T11:47:44.527Z,16.80
2018-08-04T11:48:44.539Z,16.20
2018-08-04T11:49:44.559Z,15.90
2018-08-04T11:50:44.583Z,16.70
2018-08-04T11:51:44.598Z,16.10
2018-08-04T11:52:44.619Z,16.50
2018-08-04T11:53:44.638Z,17.38
2018-08-04T11:54:44.658Z,17.17
2018-08-04T11:55:44.681Z,17.55
2018-08-04T11:56:44.707Z,18.32
2018-08-04T11:57:44.754Z,18.51
2018-08-04T11:58:44.765Z,19.38
2018-08-04T11:59:44.753Z,19.57
2018-08-04T12:00:44.770Z,17.85
2018-08-04T12:01:44.797Z,18.32
2018-08-04T12:02:44.819Z,19.20
2018-08-04T12:03:44.820Z,19.89
2018-08-04T12:04:44.841Z,20.59
2018-08-04T12:05:44.860Z,20.59
2018-08-04T12:06:44.868Z,20.48
2018-08-04T12:07:44.884Z,20.79
2018-08-04T12:08:44.898Z,20.97
2018-08-04T12:09:44.941Z,21.47
2018-08-04T12:10:44.930Z,20.97
2018-08-04T12:11:44.943Z,21.25
2018-08-04T12:12:44.958Z,21.25
2018-08-04T12:13:44.970Z,23.13
2018-08-04T12:14:44.988Z,22.92
2018-08-04T12:15:44.998Z,24.00
2018-08-04T12:16:45.013Z,24.68
2018-08-04T12:17:45.027Z,25.16
2018-08-04T12:18:45.037Z,25.95
2018-08-04T12:19:45.053Z,26.23
2018-08-04T12:20:45.063Z,26.53
2018-08-04T12:21:45.075Z,26.53
2018-08-04T12:22:45.092Z,26.62
2018-08-04T12:23:45.101Z,26.92
2018-08-04T12:24:45.115Z,26.53
2018-08-04T12:25:45.124Z,26.33
2018-08-04T12:26:45.137Z,26.03
2018-08-04T12:27:45.162Z,26.43
2018-08-04T12:28:45.160Z,25.44
2018-08-04T12:29:45.171Z,25.72
2018-08-04T12:30:45.189Z,25.03
2018-08-04T12:31:45.193Z,25.33
2018-08-04T12:32:45.207Z,25.03
2018-08-04T12:33:45.218Z,25.03
2018-08-04T12:34:45.233Z,24.44
2018-08-04T12:35:45.243Z,24.44
2018-08-04T12:36:45.251Z,23.94
2018-08-04T12:37:45.259Z,23.94
2018-08-04T12:38:45.275Z,24.33
2018-08-04T12:39:45.283Z,24.44
2018-08-04T12:40:45.309Z,24.54
2018-08-04T12:41:45.306Z,24.83
2018-08-04T12:42:45.358Z,25.13
2018-08-04T12:43:45.327Z,25.43
2018-08-04T12:44:45.340Z,25.52
2018-08-04T12:45:45.354Z,25.52
2018-08-04T12:46:45.360Z,25.34
2018-08-04T12:47:45.370Z,25.33
2018-08-04T12:48:45.381Z,25.23
2018-08-04T12:49:45.390Z,24.62
2018-08-04T12:50:45.406Z,24.43
2018-08-04T12:51:45.806Z,25.50
2018-08-04T12:52:45.863Z,25.68